Time;durP1;ratioP1;P1;durP2;ratioP2;P2;SDS_P1;SDS_P2;PMS_P1;PMS_P2;Temp;Humidity;BMP_temperature;BMP_pressure;BME280_temperature;BME280_humidity;BME280_pressure;Samples;Min_cycle;Max_cycle;Signal;HPM_P1;HPM_P2
2022/04/24 00:01:54;;;;;;;;;;;;;;;4.67;77.75;97700.84;6310046;22;19957;-88
2022/04/24 00:04:20;;;;;;;;;;;;;;;4.66;77.86;97704.44;6308162;22;19911;-85
2022/04/24 00:06:46;;;;;;;;;;;;;;;4.69;77.68;97699.03;6308795;22;19949;-88
2022/04/24 00:09:12;;;;;;;;;;;;;;;4.70;77.56;97692.81;6337267;22;19911;-88
2022/04/24 00:11:37;;;;;;;;;;;;;;;4.70;77.66;97698.06;6337967;22;19918;-86
2022/04/24 00:14:07;;;;;;;;;;;;;;;4.70;77.57;97690.19;6339087;22;19910;-85
2022/04/24 00:16:33;;;;;;;;;;;;;;;4.76;77.65;97689.03;6337695;22;19917;-89
2022/04/24 00:18:58;;;;;;;;;;;;;;;4.76;77.47;97689.03;6337496;22;19993;-89
2022/04/24 00:21:23;;;;;;;;;;;;;;;4.75;77.51;97692.59;6338870;22;20337;-86
2022/04/24 00:23:48;;;;;;;;;;;;;;;4.75;77.52;97692.59;6311682;22;19917;-89
2022/04/24 00:26:14;;;;;;;;;;;;;;;4.76;77.45;97683.81;6339301;22;20234;-87
2022/04/24 00:28:39;;;;;;;;;;;;;;;4.80;77.54;97689.72;6338761;22;19956;-87
2022/04/24 00:31:04;;;;;;;;;;;;;;;4.82;77.52;97693.09;6311214;22;19915;-87
2022/04/24 00:33:29;;;;;;;;;;;;;;;4.84;77.54;97678.16;6309170;22;19918;-86
2022/04/24 00:35:55;;;;;;;;;;;;;;;4.85;77.77;97680.69;6338451;22;19914;-86
2022/04/24 00:38:20;;;;;;;;;;;;;;;4.96;78.95;97684.50;6338847;22;19949;-88
2022/04/24 00:40:46;;;;;;;;;;;;;;;5.08;81.47;97678.59;6311471;22;20318;-87
2022/04/24 00:43:11;;;;;;;;;;;;;;;5.12;82.66;97688.00;6338308;22;19914;-86
2022/04/24 00:45:36;;;;;;;;;;;;;;;5.09;83.25;97685.56;6338997;22;19910;-86
2022/04/24 00:48:02;;;;;;;;;;;;;;;5.07;83.80;97688.28;6337206;22;19942;-88
2022/04/24 00:50:27;;;;;;;;;;;;;;;5.11;84.16;97691.56;6338837;22;19911;-86
2022/04/24 00:52:52;;;;;;;;;;;;;;;5.21;85.08;97698.00;6338805;22;19911;-86
2022/04/24 00:55:21;;;;;;;;;;;;;;;5.26;86.36;97714.38;6338682;22;19932;-87
2022/04/24 00:57:46;;;;;;;;;;;;;;;5.25;87.51;97727.59;6338751;22;19911;-87
2022/04/24 01:00:12;;;;;;;;;;;;;;;5.20;88.41;97745.34;6338939;22;19911;-87
2022/04/24 01:02:38;;;;;;;;;;;;;;;5.09;89.35;97748.56;6336053;22;19914;-87
2022/04/24 01:05:03;;;;;;;;;;;;;;;5.02;89.84;97736.69;6336705;22;20345;-87
2022/04/24 01:07:28;;;;;;;;;;;;;;;4.91;89.80;97727.63;6338579;22;19911;-87
2022/04/24 01:09:56;;;;;;;;;;;;;;;4.85;90.13;97733.19;6338674;22;20286;-87
2022/04/24 01:12:21;;;;;;;;;;;;;;;4.87;90.87;97733.09;6337766;22;19914;-87
2022/04/24 03:28:28;;;;;;;;;;;;;;;7.22;100.00;97778.59;6330077;22;20002;-86
2022/04/24 03:30:53;;;;;;;;;;;;;;;7.18;100.00;97769.19;6337659;22;19938;-85
2022/04/24 03:33:18;;;;;;;;;;;;;;;7.17;100.00;97772.78;6310123;22;19994;-85
2022/04/24 03:35:43;;;;;;;;;;;;;;;7.16;100.00;97765.81;6309924;22;20017;-84
2022/04/24 03:38:09;;;;;;;;;;;;;;;7.20;100.00;97768.16;6337792;22;19922;-86
2022/04/24 03:40:34;;;;;;;;;;;;;;;7.25;100.00;97765.25;6308106;22;20388;-87
2022/04/24 03:42:59;;;;;;;;;;;;;;;7.24;100.00;97771.44;6337574;22;19921;-87
2022/04/24 03:45:24;;;;;;;;;;;;;;;7.23;100.00;97775.88;6309817;22;19910;-86
2022/04/24 03:47:51;;;;;;;;;;;;;;;7.27;100.00;97773.91;6311687;22;19921;-86
2022/04/24 03:50:18;;;;;;;;;;;;;;;7.25;100.00;97771.34;6339757;22;19914;-88
2022/04/24 03:52:44;;;;;;;;;;;;;;;7.27;100.00;97772.13;6339685;22;19953;-85
2022/04/24 03:55:09;;;;;;;;;;;;;;;7.30;100.00;97771.06;6337623;22;20694;-85
2022/04/24 03:57:34;;;;;;;;;;;;;;;6.89;100.00;97767.41;6339302;22;19921;-84
2022/04/24 04:00:00;;;;;;;;;;;;;;;6.40;100.00;97770.28;6339477;22;19960;-82
2022/04/24 04:02:26;;;;;;;;;;;;;;;6.10;100.00;97775.50;6337897;22;20093;-83
2022/04/24 04:04:51;;;;;;;;;;;;;;;5.94;100.00;97773.72;6338919;22;19963;-83
2022/04/24 04:07:16;;;;;;;;;;;;;;;5.78;100.00;97781.59;6339266;22;19914;-84
2022/04/24 04:09:42;;;;;;;;;;;;;;;5.83;100.00;97791.84;6339129;22;19915;-83
2022/04/24 04:12:07;;;;;;;;;;;;;;;5.63;100.00;97785.94;6337850;22;19911;-84
2022/04/24 04:14:33;;;;;;;;;;;;;;;5.66;100.00;97794.56;6339019;22;19945;-83
2022/04/24 04:16:58;;;;;;;;;;;;;;;5.76;100.00;97795.75;6339248;22;19911;-83
2022/04/24 04:19:23;;;;;;;;;;;;;;;5.93;100.00;97795.66;6339460;22;19915;-83
2022/04/24 04:21:49;;;;;;;;;;;;;;;5.99;100.00;97792.72;6339126;22;20234;-83
2022/04/24 04:24:14;;;;;;;;;;;;;;;5.80;100.00;97789.41;6339286;22;19978;-84
2022/04/24 04:26:40;;;;;;;;;;;;;;;5.72;100.00;97789.81;6337352;22;20257;-83
2022/04/24 04:29:05;;;;;;;;;;;;;;;5.68;100.00;97784.81;6338821;22;19997;-83
2022/04/24 04:31:30;;;;;;;;;;;;;;;5.73;100.00;97790.69;6338723;22;19918;-83
2022/04/24 04:33:55;;;;;;;;;;;;;;;5.67;100.00;97786.59;6339092;22;19918;-84
2022/04/24 04:36:21;;;;;;;;;;;;;;;5.66;100.00;97794.56;6338945;22;20295;-84
2022/04/24 04:38:46;;;;;;;;;;;;;;;5.45;100.00;97797.41;6338819;22;20035;-84
2022/04/24 04:41:11;;;;;;;;;;;;;;;5.57;100.00;97803.81;6337260;22;19917;-83
2022/04/24 04:43:37;;;;;;;;;;;;;;;5.55;100.00;97808.28;6339035;22;19911;-84
2022/04/24 04:46:02;;;;;;;;;;;;;;;5.43;100.00;97808.00;6338943;22;20375;-84
2022/04/24 04:48:28;;;;;;;;;;;;;;;5.40;100.00;97802.06;6338996;22;19907;-84
2022/04/24 04:50:53;;;;;;;;;;;;;;;5.42;100.00;97813.34;6338877;22;19964;-85
2022/04/24 04:53:18;;;;;;;;;;;;;;;5.43;100.00;97818.50;6311096;22;19913;-84
2022/04/24 04:55:44;;;;;;;;;;;;;;;5.45;100.00;97824.53;6336966;22;20282;-85
2022/04/24 12:49:37;;;;;;;;;;;;;;;4.63;83.83;98129.56;6330675;22;19929;-82
2022/04/24 12:52:03;;;;;;;;;;;;;;;4.68;85.12;98132.00;6338937;22;20254;-82
2022/04/24 12:54:28;;;;;;;;;;;;;;;4.67;86.10;98133.75;6338881;22;19910;-82
2022/04/24 12:56:53;;;;;;;;;;;;;;;4.64;87.05;98138.28;6338938;22;19918;-82
2022/04/24 12:59:19;;;;;;;;;;;;;;;4.64;87.71;98140.91;6338784;22;20376;-84
2022/04/24 13:01:44;;;;;;;;;;;;;;;4.75;88.67;98133.41;6338787;22;19997;-83
2022/04/24 13:04:09;;;;;;;;;;;;;;;4.83;90.07;98144.41;6309742;22;20245;-83
2022/04/24 13:06:36;;;;;;;;;;;;;;;4.97;92.60;98133.28;6338633;22;20652;-84
2022/04/24 13:09:01;;;;;;;;;;;;;;;5.20;95.93;98132.22;6338716;22;19911;-85
2022/04/24 13:11:26;;;;;;;;;;;;;;;5.38;99.42;98135.72;6310883;22;19945;-84
2022/04/24 13:13:52;;;;;;;;;;;;;;;5.60;100.00;98139.94;6338745;22;19918;-82
2022/04/24 13:19:02;;;;;;;;;;;;;;;5.86;100.00;98141.28;6336584;22;19918;-83
2022/04/24 13:21:27;;;;;;;;;;;;;;;5.93;100.00;98140.03;6338320;22;19914;-82
2022/04/24 13:23:52;;;;;;;;;;;;;;;6.01;100.00;98137.06;6338521;22;19911;-82
2022/04/24 13:26:17;;;;;;;;;;;;;;;6.07;100.00;98138.56;6338519;22;19967;-85
2022/04/24 13:28:43;;;;;;;;;;;;;;;6.13;100.00;98144.34;6338504;22;19910;-84
2022/04/24 13:31:08;;;;;;;;;;;;;;;6.20;100.00;98144.03;6338491;22;19910;-87
2022/04/24 13:33:34;;;;;;;;;;;;;;;6.23;100.00;98146.50;6336873;22;19921;-86
2022/04/24 13:36:00;;;;;;;;;;;;;;;6.28;100.00;98142.69;6337452;22;19907;-86
2022/04/24 13:38:26;;;;;;;;;;;;;;;6.37;100.00;98146.66;6337198;22;19918;-84
2022/04/24 13:40:53;;;;;;;;;;;;;;;6.45;100.00;98154.16;6338882;22;19911;-85
2022/04/24 13:43:19;;;;;;;;;;;;;;;6.47;100.00;98153.13;6338208;22;19922;-85
2022/04/24 13:45:44;;;;;;;;;;;;;;;6.52;100.00;98147.63;6338334;22;19915;-85
2022/04/24 13:48:11;;;;;;;;;;;;;;;6.54;100.00;98148.38;6336880;22;19907;-86
2022/04/24 13:50:37;;;;;;;;;;;;;;;6.60;100.00;98139.31;6338033;22;19975;-85
2022/04/24 13:53:03;;;;;;;;;;;;;;;6.63;100.00;98153.16;6338301;22;19955;-85
2022/04/24 13:55:29;;;;;;;;;;;;;;;6.67;100.00;98146.81;6336955;22;19921;-86
2022/04/24 13:57:55;;;;;;;;;;;;;;;6.69;100.00;98152.84;6337426;22;19914;-81
2022/04/24 14:00:22;;;;;;;;;;;;;;;6.70;100.00;98144.03;6338529;22;19963;-82
2022/04/24 14:02:49;;;;;;;;;;;;;;;6.73;100.00;98145.63;6336500;22;20286;-82
2022/04/24 14:05:14;;;;;;;;;;;;;;;6.77;100.00;98157.72;6337949;22;20330;-83
2022/04/24 14:07:40;;;;;;;;;;;;;;;6.83;100.00;98156.50;6338007;22;19959;-83
2022/04/24 14:10:06;;;;;;;;;;;;;;;6.85;100.00;98157.31;6338127;22;19914;-84
2022/04/24 14:12:32;;;;;;;;;;;;;;;6.89;100.00;98156.19;6337982;22;19915;-81
2022/04/24 14:14:57;;;;;;;;;;;;;;;6.93;100.00;98165.63;6338131;22;19919;-81
2022/04/24 14:17:23;;;;;;;;;;;;;;;6.92;100.00;98161.28;6336580;22;20322;-85
2022/04/24 14:19:48;;;;;;;;;;;;;;;6.96;100.00;98162.00;6337857;22;20295;-86
2022/04/24 14:22:13;;;;;;;;;;;;;;;6.98;100.00;98160.97;6338044;22;19932;-86
2022/04/24 14:24:39;;;;;;;;;;;;;;;6.99;100.00;98157.41;6338028;22;20287;-83
2022/04/24 14:27:04;;;;;;;;;;;;;;;7.02;100.00;98156.38;6338124;22;19932;-84
2022/04/24 14:29:29;;;;;;;;;;;;;;;6.60;100.00;98163.00;6337937;22;19915;-83
2022/04/24 14:31:55;;;;;;;;;;;;;;;6.21;100.00;98166.75;6337697;22;19938;-83
2022/04/24 14:34:20;;;;;;;;;;;;;;;5.96;100.00;98163.59;6336426;22;19911;-83
2022/04/24 14:36:45;;;;;;;;;;;;;;;5.89;100.00;98170.06;6337885;22;20287;-81
2022/04/24 14:39:11;;;;;;;;;;;;;;;5.74;100.00;98174.28;6337986;22;19914;-81
2022/04/24 14:41:36;;;;;;;;;;;;;;;5.71;100.00;98176.19;6310246;22;19910;-81
2022/04/24 14:44:02;;;;;;;;;;;;;;;5.66;100.00;98175.59;6337902;22;19933;-81
2022/04/24 14:57:23;;;;;;;;;;;;;;;5.42;100.00;98178.47;6337757;22;19952;-81
2022/04/24 14:59:48;;;;;;;;;;;;;;;5.45;100.00;98186.19;6337675;22;20261;-81
2022/04/24 15:02:14;;;;;;;;;;;;;;;5.39;100.00;98186.47;6309025;22;19915;-82
2022/04/24 15:04:39;;;;;;;;;;;;;;;5.37;100.00;98198.84;6337763;22;19910;-81
2022/04/24 15:07:04;;;;;;;;;;;;;;;5.35;100.00;98200.69;6337685;22;20498;-82
2022/04/24 15:09:29;;;;;;;;;;;;;;;5.31;100.00;98194.72;6310104;22;19911;-81
2022/04/24 15:11:55;;;;;;;;;;;;;;;5.31;99.82;98205.22;6337564;22;19919;-81
2022/04/24 15:14:20;;;;;;;;;;;;;;;5.24;99.66;98204.66;6337644;22;19917;-81
2022/04/24 15:16:46;;;;;;;;;;;;;;;5.31;99.76;98199.13;6337559;22;19925;-81
2022/04/24 15:19:11;;;;;;;;;;;;;;;5.22;99.12;98198.63;6336215;22;19989;-83
2022/04/24 15:21:36;;;;;;;;;;;;;;;5.20;99.04;98203.13;6337567;22;19972;-84
2022/04/24 15:24:09;;;;;;;;;;;;;;;5.27;98.85;98204.53;6309832;22;20314;-83
2022/04/24 15:26:35;;;;;;;;;;;;;;;5.18;98.50;98202.31;6337520;22;19914;-83
2022/04/24 15:29:02;;;;;;;;;;;;;;;5.16;98.42;98200.69;6337577;22;20319;-84
2022/04/24 15:31:27;;;;;;;;;;;;;;;5.12;98.27;98197.34;6309896;22;20288;-83
2022/04/24 15:33:53;;;;;;;;;;;;;;;5.16;97.98;98204.16;6336068;22;19910;-81
2022/04/24 15:36:18;;;;;;;;;;;;;;;5.07;97.65;98205.47;6337520;22;19910;-81
2022/04/24 15:38:43;;;;;;;;;;;;;;;5.12;97.48;98204.38;6309807;22;20341;-80
2022/04/24 15:41:10;;;;;;;;;;;;;;;5.07;97.21;98201.97;6337379;22;19929;-82
2022/04/24 15:43:36;;;;;;;;;;;;;;;5.04;97.14;98207.34;6338592;22;19919;-81
2022/04/24 15:46:01;;;;;;;;;;;;;;;5.12;96.93;98204.38;6311826;22;19990;-84
2022/04/24 15:48:28;;;;;;;;;;;;;;;5.00;96.90;98206.63;6337617;22;19922;-81
2022/04/24 15:50:54;;;;;;;;;;;;;;;5.01;96.79;98207.47;6339509;22;19943;-86
2022/04/24 15:53:19;;;;;;;;;;;;;;;5.01;96.77;98204.84;6311897;22;20234;-84
2022/04/24 15:55:44;;;;;;;;;;;;;;;5.02;96.36;98211.81;6339227;22;19967;-84
2022/04/24 15:58:10;;;;;;;;;;;;;;;5.05;96.39;98209.91;6339246;22;19914;-84
2022/04/24 16:00:36;;;;;;;;;;;;;;;5.02;95.81;98209.19;6311966;22;20018;-85
2022/04/24 16:03:02;;;;;;;;;;;;;;;4.99;95.62;98210.19;6337690;22;19921;-83
2022/04/24 16:05:27;;;;;;;;;;;;;;;4.99;95.37;98209.34;6339347;22;19914;-83
2022/04/24 16:07:55;;;;;;;;;;;;;;;4.97;95.10;98217.28;6311501;22;19907;-85
2022/04/24 16:10:20;;;;;;;;;;;;;;;4.93;94.80;98210.47;6339182;22;20374;-83
2022/04/24 16:12:46;;;;;;;;;;;;;;;4.99;94.73;98211.97;6339208;22;19942;-83
2022/04/24 16:15:11;;;;;;;;;;;;;;;4.91;94.46;98220.16;6311665;22;19910;-84
2022/04/24 16:17:37;;;;;;;;;;;;;;;4.93;94.35;98225.34;6335749;22;19953;-81
2022/04/24 16:20:03;;;;;;;;;;;;;;;4.89;93.99;98224.66;6337928;22;19910;-81
2022/04/24 16:22:28;;;;;;;;;;;;;;;4.96;93.94;98219.97;6338638;22;19914;-81
2022/04/24 16:24:53;;;;;;;;;;;;;;;4.92;93.81;98224.50;6338728;22;19911;-81
2022/04/24 16:27:19;;;;;;;;;;;;;;;5.00;93.50;98221.56;6338065;22;19915;-81
2022/04/24 16:29:56;;;;;;;;;;;;;;;4.91;93.20;98226.28;6311309;22;19910;-83
2022/04/24 16:32:28;;;;;;;;;;;;;;;4.92;93.24;98227.13;6336632;22;19953;-82
2022/04/24 16:34:55;;;;;;;;;;;;;;;4.90;93.25;98231.63;6338633;22;19910;-81
2022/04/24 16:37:20;;;;;;;;;;;;;;;4.90;93.26;98232.44;6339233;22;19910;-85
2022/04/24 16:39:45;;;;;;;;;;;;;;;5.51;95.48;98227.94;6338729;22;19945;-81
2022/04/24 16:42:12;;;;;;;;;;;;;;;5.13;95.87;98227.09;6338356;22;19914;-81
2022/04/24 16:44:38;;;;;;;;;;;;;;;5.02;95.59;98235.44;6311458;22;19918;-81
2022/04/24 16:47:03;;;;;;;;;;;;;;;4.91;95.31;98234.16;6338489;22;20237;-81
2022/04/24 16:49:29;;;;;;;;;;;;;;;4.88;94.98;98236.06;6337160;22;20336;-81
2022/04/24 17:00:07;;;;;;;;;;;;;;;4.83;94.51;98244.13;6338821;22;20005;-81
2022/04/24 17:02:32;;;;;;;;;;;;;;;4.85;94.37;98239.69;6337006;22;19953;-81
2022/04/24 17:04:58;;;;;;;;;;;;;;;4.79;94.29;98239.94;6338605;22;19934;-81
2022/04/24 17:07:25;;;;;;;;;;;;;;;4.83;94.32;98238.88;6338593;22;19964;-81
2022/04/24 17:09:53;;;;;;;;;;;;;;;4.79;94.22;98234.69;6338616;22;19914;-82
2022/04/24 17:12:19;;;;;;;;;;;;;;;4.79;94.23;98241.72;6338626;22;19910;-82
2022/04/24 17:14:44;;;;;;;;;;;;;;;4.78;94.22;98237.41;6338398;22;19918;-82
2022/04/24 17:17:10;;;;;;;;;;;;;;;4.78;94.16;98234.78;6337041;22;19911;-81
2022/04/24 17:19:35;;;;;;;;;;;;;;;4.74;94.07;98241.94;6338430;22;19915;-81
2022/04/24 17:22:00;;;;;;;;;;;;;;;4.73;94.09;98240.22;6338656;22;19950;-82
2022/04/24 17:24:26;;;;;;;;;;;;;;;4.76;93.87;98247.13;6338508;22;19915;-82
2022/04/24 17:26:52;;;;;;;;;;;;;;;4.73;93.72;98246.31;6310961;22;19914;-81
2022/04/24 17:29:18;;;;;;;;;;;;;;;4.75;93.56;98254.13;6338545;22;19911;-82
2022/04/24 17:31:44;;;;;;;;;;;;;;;5.25;95.40;98251.03;6338377;22;19987;-75
2022/04/24 17:34:10;;;;;;;;;;;;;;;5.11;95.66;98250.78;6337306;22;19914;-81
2022/04/24 17:36:35;;;;;;;;;;;;;;;4.89;95.09;98256.97;6338481;22;19919;-80
2022/04/24 17:39:01;;;;;;;;;;;;;;;4.85;94.82;98259.81;6338360;22;20318;-81
2022/04/24 17:41:27;;;;;;;;;;;;;;;4.80;94.26;98257.38;6338884;22;19922;-80
2022/04/24 17:43:53;;;;;;;;;;;;;;;4.77;93.75;98260.16;6338313;22;19945;-81
2022/04/24 17:46:18;;;;;;;;;;;;;;;4.74;93.47;98273.41;6338281;22;19918;-80
2022/04/24 17:48:44;;;;;;;;;;;;;;;4.72;93.16;98275.25;6336560;22;19919;-80
2022/04/24 17:51:09;;;;;;;;;;;;;;;4.69;93.11;98275.38;6310653;22;19918;-80
2022/04/24 17:53:34;;;;;;;;;;;;;;;4.70;92.98;98271.84;6338421;22;19911;-80
2022/04/24 17:55:59;;;;;;;;;;;;;;;4.65;92.81;98272.03;6338103;22;19938;-80
2022/04/24 17:58:25;;;;;;;;;;;;;;;4.68;92.74;98289.44;6338298;22;19922;-81
2022/04/24 18:00:51;;;;;;;;;;;;;;;4.65;92.57;98289.56;6338233;22;19907;-80
2022/04/24 18:03:19;;;;;;;;;;;;;;;4.60;92.73;98296.78;6336509;22;19919;-79
2022/04/24 18:05:44;;;;;;;;;;;;;;;4.64;92.82;98300.94;6338248;22;19911;-80
2022/04/24 18:08:11;;;;;;;;;;;;;;;4.64;92.89;98306.19;6338011;22;19917;-81
2022/04/24 18:10:36;;;;;;;;;;;;;;;4.65;92.74;98305.28;6338240;22;19914;-81
2022/04/24 18:13:02;;;;;;;;;;;;;;;4.63;92.92;98310.59;6310571;22;19911;-81
2022/04/24 18:15:29;;;;;;;;;;;;;;;4.62;92.62;98313.28;6337932;22;20280;-81
2022/04/24 18:17:57;;;;;;;;;;;;;;;4.67;92.62;98311.31;6334985;22;19946;-81
2022/04/24 18:20:23;;;;;;;;;;;;;;;4.62;92.38;98319.38;6283639;22;20172;-81
2022/04/24 18:22:49;;;;;;;;;;;;;;;4.64;92.54;98319.31;6337013;22;20376;-81
2022/04/24 18:25:14;;;;;;;;;;;;;;;4.63;92.36;98328.13;6337574;22;19921;-81
2022/04/24 18:27:39;;;;;;;;;;;;;;;4.70;91.91;98332.19;6310133;22;19911;-81
2022/04/24 18:30:06;;;;;;;;;;;;;;;4.70;92.00;98337.44;6337728;22;20140;-81
2022/04/24 18:32:32;;;;;;;;;;;;;;;4.68;91.83;98339.28;6336200;22;19915;-81
2022/04/24 18:34:57;;;;;;;;;;;;;;;4.69;91.93;98343.59;6310091;22;19914;-81
2022/04/24 18:37:38;;;;;;;;;;;;;;;4.66;91.77;98346.34;6338213;22;20234;-81
2022/04/24 18:40:04;;;;;;;;;;;;;;;4.68;91.52;98348.00;6337723;22;20238;-82
2022/04/24 18:42:29;;;;;;;;;;;;;;;4.64;91.48;98356.94;6310097;22;20340;-81
2022/04/24 18:44:55;;;;;;;;;;;;;;;4.61;91.56;98351.81;6337640;22;19952;-82
2022/04/24 18:47:22;;;;;;;;;;;;;;;4.65;91.62;98355.16;6336186;22;19919;-82
2022/04/24 18:49:47;;;;;;;;;;;;;;;4.68;91.38;98352.41;6305053;22;19915;-82
2022/04/24 18:52:12;;;;;;;;;;;;;;;4.57;91.37;98365.94;6306397;22;19922;-81
2022/04/24 18:54:38;;;;;;;;;;;;;;;4.50;91.60;98365.34;6306511;22;20277;-82
2022/04/24 18:57:04;;;;;;;;;;;;;;;4.57;91.78;98375.59;6306354;22;19910;-82
2022/04/24 18:59:30;;;;;;;;;;;;;;;4.50;91.63;98380.22;6306339;22;19922;-82
2022/04/24 19:01:55;;;;;;;;;;;;;;;4.53;91.88;98375.72;6306539;22;19961;-82
2022/04/24 19:12:31;;;;;;;;;;;;;;;4.51;91.93;98384.56;6306521;22;19996;-82
2022/04/24 19:15:00;;;;;;;;;;;;;;;4.49;91.96;98395.13;6306792;22;20002;-83
2022/04/24 19:17:26;;;;;;;;;;;;;;;4.50;92.13;98412.56;6306339;22;19996;-82
2022/04/24 19:19:51;;;;;;;;;;;;;;;4.50;91.92;98419.56;6308607;22;19915;-81
2022/04/24 19:22:16;;;;;;;;;;;;;;;4.53;91.65;98422.06;6332751;22;19911;-82
2022/04/24 19:24:42;;;;;;;;;;;;;;;4.48;91.60;98424.91;6308396;22;19911;-82
2022/04/24 19:27:07;;;;;;;;;;;;;;;4.47;91.75;98431.06;6308464;22;19933;-82
2022/04/24 19:29:33;;;;;;;;;;;;;;;4.43;91.61;98442.56;6308518;22;20326;-81
2022/04/24 19:31:58;;;;;;;;;;;;;;;4.46;91.39;98447.69;6307212;22;19985;-81
2022/04/24 19:34:23;;;;;;;;;;;;;;;4.45;91.36;98447.75;6306786;22;19910;-81
2022/04/24 19:36:49;;;;;;;;;;;;;;;4.42;91.12;98445.25;6307326;22;19910;-81
2022/04/24 19:39:14;;;;;;;;;;;;;;;4.41;91.01;98452.28;6307986;22;19948;-81
2022/04/24 19:41:42;;;;;;;;;;;;;;;4.55;90.99;98452.59;6308412;22;19910;-81
2022/04/24 19:44:09;;;;;;;;;;;;;;;4.57;90.79;98456.94;6308102;22;19917;-81
2022/04/24 19:46:35;;;;;;;;;;;;;;;4.61;90.71;98458.50;6306549;22;19958;-81
2022/04/24 19:51:45;;;;;;;;;;;;;;;4.48;90.68;98471.25;6339138;22;20261;-82
2022/04/24 19:54:11;;;;;;;;;;;;;;;4.43;90.69;98479.28;6311587;22;20243;-80
2022/04/24 19:56:36;;;;;;;;;;;;;;;4.46;91.00;98487.03;6339293;22;19958;-81
2022/04/24 19:59:02;;;;;;;;;;;;;;;4.48;91.21;98487.88;6338920;22;19911;-81
2022/04/24 20:01:28;;;;;;;;;;;;;;;4.55;91.10;98491.09;6337643;22;19911;-81
2022/04/24 20:03:54;;;;;;;;;;;;;;;4.57;90.83;98501.53;6337855;22;20264;-81
2022/04/24 20:06:19;;;;;;;;;;;;;;;4.49;90.74;98494.78;6338896;22;20398;-82
2022/04/24 20:08:45;;;;;;;;;;;;;;;4.51;90.56;98500.00;6339244;22;20001;-82
2022/04/24 20:11:10;;;;;;;;;;;;;;;4.39;90.43;98509.19;6337305;22;19910;-82
2022/04/24 20:13:35;;;;;;;;;;;;;;;4.38;90.74;98515.34;6337897;22;19941;-82
2022/04/24 20:16:01;;;;;;;;;;;;;;;4.39;90.96;98516.19;6337573;22;19911;-83
2022/04/24 20:18:27;;;;;;;;;;;;;;;4.39;90.81;98514.44;6336672;22;19921;-82
2022/04/24 20:20:52;;;;;;;;;;;;;;;4.38;90.69;98512.72;6339177;22;19942;-81
2022/04/24 20:23:17;;;;;;;;;;;;;;;4.39;90.92;98509.19;6338436;22;19957;-81
2022/04/24 20:25:43;;;;;;;;;;;;;;;4.36;90.83;98515.41;6337294;22;20344;-81
2022/04/24 20:28:08;;;;;;;;;;;;;;;4.38;90.79;98517.97;6337267;22;19922;-81
2022/04/24 20:30:34;;;;;;;;;;;;;;;4.41;90.96;98512.59;6339111;22;19910;-81
2022/04/24 20:33:01;;;;;;;;;;;;;;;4.39;91.11;98509.19;6335276;22;19956;-80
2022/04/24 20:35:27;;;;;;;;;;;;;;;4.38;91.02;98512.72;6336485;22;19918;-81
2022/04/24 20:37:53;;;;;;;;;;;;;;;4.32;91.14;98519.06;6336165;22;19914;-81
2022/04/24 20:40:18;;;;;;;;;;;;;;;4.34;91.08;98530.34;6336739;22;19968;-81
2022/04/24 20:42:44;;;;;;;;;;;;;;;4.36;91.30;98525.03;6337237;22;20322;-80
2022/04/24 20:45:09;;;;;;;;;;;;;;;4.48;91.01;98535.06;6337886;22;19915;-81
2022/04/24 20:47:35;;;;;;;;;;;;;;;4.46;90.74;98536.88;6308706;22;20300;-81
2022/04/24 20:50:00;;;;;;;;;;;;;;;4.50;90.73;98535.00;6338087;22;19915;-80
2022/04/24 20:52:25;;;;;;;;;;;;;;;4.40;90.84;98531.88;6338762;22;20405;-80
2022/04/24 20:54:51;;;;;;;;;;;;;;;4.37;90.97;98534.59;6311221;22;19915;-81
2022/04/24 20:57:17;;;;;;;;;;;;;;;4.36;91.06;98527.66;6337414;22;19911;-80
2022/04/24 20:59:42;;;;;;;;;;;;;;;4.36;91.11;98535.53;6337417;22;19910;-81
2022/04/24 21:02:15;;;;;;;;;;;;;;;4.42;90.91;98535.31;6310164;22;19914;-81
2022/04/24 21:04:41;;;;;;;;;;;;;;;4.46;91.01;98542.13;6338011;22;20309;-81
2022/04/24 21:07:06;;;;;;;;;;;;;;;4.37;90.78;98539.84;6338725;22;19923;-81
2022/04/24 21:09:32;;;;;;;;;;;;;;;4.40;90.86;98537.09;6311506;22;19924;-81
2022/04/24 21:11:57;;;;;;;;;;;;;;;4.40;90.62;98544.13;6338705;22;19918;-81
2022/04/24 21:14:23;;;;;;;;;;;;;;;4.51;90.27;98547.19;6338507;22;19917;-81
2022/04/24 21:16:48;;;;;;;;;;;;;;;4.41;90.06;98541.47;6311153;22;20374;-81
2022/04/24 21:19:13;;;;;;;;;;;;;;;4.44;90.31;98540.50;6337009;22;19917;-81
2022/04/24 21:21:39;;;;;;;;;;;;;;;4.43;90.53;98547.50;6338584;22;19921;-81
2022/04/24 21:24:04;;;;;;;;;;;;;;;4.46;90.83;98552.63;6310862;22;19915;-81
2022/04/24 21:26:30;;;;;;;;;;;;;;;4.49;91.00;98559.53;6338205;22;20246;-80
2022/04/24 21:28:55;;;;;;;;;;;;;;;4.41;91.09;98564.22;6338337;22;19915;-81
2022/04/24 21:31:21;;;;;;;;;;;;;;;4.42;91.45;98560.66;6310721;22;19910;-81
2022/04/24 21:33:46;;;;;;;;;;;;;;;4.42;91.45;98561.53;6336606;22;19919;-81
2022/04/24 21:36:12;;;;;;;;;;;;;;;4.37;91.40;98566.06;6338329;22;19910;-81
2022/04/24 21:38:37;;;;;;;;;;;;;;;4.32;91.31;98565.41;6310675;22;19911;-82
2022/04/24 21:41:02;;;;;;;;;;;;;;;4.31;91.18;98564.56;6337906;22;19910;-81
2022/04/24 21:43:28;;;;;;;;;;;;;;;4.35;90.92;98567.91;6338446;22;20331;-81
2022/04/24 21:45:53;;;;;;;;;;;;;;;4.35;90.69;98573.16;6310764;22;19921;-81
2022/04/24 21:48:20;;;;;;;;;;;;;;;4.34;90.62;98571.44;6336414;22;19941;-81
2022/04/24 21:50:45;;;;;;;;;;;;;;;4.36;90.59;98572.25;6338280;22;20410;-81
